sensor_id;sensor_type;location;lat;lon;timestamp;temperature;humidity
55211;DHT22;41082;52.822;6.666;2022-11-20T00:00:25;-0.70;99.90
55211;DHT22;41082;52.822;6.666;2022-11-20T00:02:51;-0.70;99.90
55211;DHT22;41082;52.822;6.666;2022-11-20T00:05:16;-0.70;99.90
55211;DHT22;41082;52.822;6.666;2022-11-20T00:07:42;-0.70;99.90
55211;DHT22;41082;52.822;6.666;2022-11-20T00:10:08;-0.70;99.90
55211;DHT22;41082;52.822;6.666;2022-11-20T00:12:33;-0.70;99.90
55211;DHT22;41082;52.822;6.666;2022-11-20T00:14:59;-0.70;99.90
55211;DHT22;41082;52.822;6.666;2022-11-20T00:17:25;-0.70;99.90
55211;DHT22;41082;52.822;6.666;2022-11-20T00:19:51;-0.60;99.90
55211;DHT22;41082;52.822;6.666;2022-11-20T00:22:16;-0.60;99.90
55211;DHT22;41082;52.822;6.666;2022-11-20T00:24:42;-0.60;99.90
55211;DHT22;41082;52.822;6.666;2022-11-20T00:27:07;-0.50;99.90
55211;DHT22;41082;52.822;6.666;2022-11-20T00:29:33;-0.50;99.90
55211;DHT22;41082;52.822;6.666;2022-11-20T00:31:59;-0.50;99.90
55211;DHT22;41082;52.822;6.666;2022-11-20T00:34:24;-0.50;99.90
55211;DHT22;41082;52.822;6.666;2022-11-20T00:36:50;-0.40;99.90
55211;DHT22;41082;52.822;6.666;2022-11-20T00:39:15;-0.40;99.90
55211;DHT22;41082;52.822;6.666;2022-11-20T00:41:41;-0.40;99.90
55211;DHT22;41082;52.822;6.666;2022-11-20T00:44:06;-0.30;99.90
55211;DHT22;41082;52.822;6.666;2022-11-20T00:46:32;-0.30;99.90
55211;DHT22;41082;52.822;6.666;2022-11-20T00:48:58;-0.30;99.90
55211;DHT22;41082;52.822;6.666;2022-11-20T00:51:25;-0.30;99.90
55211;DHT22;41082;52.822;6.666;2022-11-20T00:53:51;-0.20;99.90
55211;DHT22;41082;52.822;6.666;2022-11-20T00:56:18;-0.20;99.90
55211;DHT22;41082;52.822;6.666;2022-11-20T00:58:47;-0.20;99.90
55211;DHT22;41082;52.822;6.666;2022-11-20T01:01:23;-0.20;99.90
55211;DHT22;41082;52.822;6.666;2022-11-20T01:03:51;-0.10;99.90
55211;DHT22;41082;52.822;6.666;2022-11-20T01:06:22;-0.10;99.90
55211;DHT22;41082;52.822;6.666;2022-11-20T01:08:50;-0.10;99.90
55211;DHT22;41082;52.822;6.666;2022-11-20T01:11:27;-0.10;99.90
55211;DHT22;41082;52.822;6.666;2022-11-20T01:13:55;-0.10;99.90
55211;DHT22;41082;52.822;6.666;2022-11-20T01:16:26;0.00;99.90
55211;DHT22;41082;52.822;6.666;2022-11-20T01:18:54;0.00;99.90
55211;DHT22;41082;52.822;6.666;2022-11-20T01:21:24;0.00;99.90
55211;DHT22;41082;52.822;6.666;2022-11-20T01:23:50;0.00;99.90
55211;DHT22;41082;52.822;6.666;2022-11-20T01:26:20;0.00;99.90
55211;DHT22;41082;52.822;6.666;2022-11-20T01:28:46;0.10;99.90
55211;DHT22;41082;52.822;6.666;2022-11-20T01:31:17;0.10;99.90
55211;DHT22;41082;52.822;6.666;2022-11-20T01:33:44;0.10;99.90
55211;DHT22;41082;52.822;6.666;2022-11-20T01:36:11;0.10;99.90
55211;DHT22;41082;52.822;6.666;2022-11-20T01:38:37;0.10;99.90
55211;DHT22;41082;52.822;6.666;2022-11-20T01:41:03;0.10;99.90
55211;DHT22;41082;52.822;6.666;2022-11-20T01:43:28;0.20;99.90
55211;DHT22;41082;52.822;6.666;2022-11-20T01:46:14;0.20;99.90
55211;DHT22;41082;52.822;6.666;2022-11-20T01:49:42;0.20;99.90
55211;DHT22;41082;52.822;6.666;2022-11-20T01:51:45;0.20;99.90
55211;DHT22;41082;52.822;6.666;2022-11-20T01:54:17;0.20;99.90
55211;DHT22;41082;52.822;6.666;2022-11-20T01:56:46;0.20;99.90
55211;DHT22;41082;52.822;6.666;2022-11-20T01:59:16;0.20;99.90
55211;DHT22;41082;52.822;6.666;2022-11-20T02:01:42;0.20;99.90
55211;DHT22;41082;52.822;6.666;2022-11-20T02:04:08;0.30;99.90
55211;DHT22;41082;52.822;6.666;2022-11-20T02:06:51;0.30;99.90
55211;DHT22;41082;52.822;6.666;2022-11-20T02:09:19;0.30;99.90
55211;DHT22;41082;52.822;6.666;2022-11-20T02:11:44;0.30;99.90
55211;DHT22;41082;52.822;6.666;2022-11-20T02:14:10;0.30;99.90
55211;DHT22;41082;52.822;6.666;2022-11-20T02:16:47;0.40;99.90
55211;DHT22;41082;52.822;6.666;2022-11-20T02:19:26;0.40;99.90
55211;DHT22;41082;52.822;6.666;2022-11-20T02:22:04;0.40;99.90
55211;DHT22;41082;52.822;6.666;2022-11-20T02:24:32;0.40;99.90
55211;DHT22;41082;52.822;6.666;2022-11-20T02:27:12;0.40;99.90
55211;DHT22;41082;52.822;6.666;2022-11-20T02:29:45;0.40;99.90
55211;DHT22;41082;52.822;6.666;2022-11-20T02:32:41;0.40;99.90
55211;DHT22;41082;52.822;6.666;2022-11-20T02:37:36;0.40;99.90
55211;DHT22;41082;52.822;6.666;2022-11-20T02:40:02;0.40;99.90
55211;DHT22;41082;52.822;6.666;2022-11-20T02:42:28;0.40;99.90
55211;DHT22;41082;52.822;6.666;2022-11-20T02:44:53;0.40;99.90
55211;DHT22;41082;52.822;6.666;2022-11-20T02:47:19;0.40;99.90
55211;DHT22;41082;52.822;6.666;2022-11-20T02:49:44;0.40;99.90
55211;DHT22;41082;52.822;6.666;2022-11-20T02:52:10;0.40;99.90
55211;DHT22;41082;52.822;6.666;2022-11-20T02:54:36;0.50;99.90
55211;DHT22;41082;52.822;6.666;2022-11-20T02:57:01;0.50;99.90
55211;DHT22;41082;52.822;6.666;2022-11-20T02:59:27;0.50;99.90
55211;DHT22;41082;52.822;6.666;2022-11-20T03:01:52;0.50;99.90
55211;DHT22;41082;52.822;6.666;2022-11-20T03:04:18;0.50;99.90
55211;DHT22;41082;52.822;6.666;2022-11-20T03:06:43;0.50;99.90
55211;DHT22;41082;52.822;6.666;2022-11-20T03:09:09;0.50;99.90
55211;DHT22;41082;52.822;6.666;2022-11-20T03:11:34;0.50;99.90
55211;DHT22;41082;52.822;6.666;2022-11-20T03:14:04;0.50;99.90
55211;DHT22;41082;52.822;6.666;2022-11-20T03:16:31;0.60;99.90
55211;DHT22;41082;52.822;6.666;2022-11-20T03:18:56;0.60;99.90
55211;DHT22;41082;52.822;6.666;2022-11-20T03:21:22;0.60;99.90
55211;DHT22;41082;52.822;6.666;2022-11-20T03:23:48;0.60;99.90
55211;DHT22;41082;52.822;6.666;2022-11-20T03:28:45;0.60;99.90
55211;DHT22;41082;52.822;6.666;2022-11-20T03:31:14;0.70;99.90
55211;DHT22;41082;52.822;6.666;2022-11-20T03:33:41;0.60;99.90
55211;DHT22;41082;52.822;6.666;2022-11-20T03:36:09;0.70;99.90
55211;DHT22;41082;52.822;6.666;2022-11-20T03:38:36;0.70;99.90
55211;DHT22;41082;52.822;6.666;2022-11-20T03:41:10;0.70;99.90
55211;DHT22;41082;52.822;6.666;2022-11-20T03:43:37;0.70;99.90
55211;DHT22;41082;52.822;6.666;2022-11-20T03:46:03;0.70;99.90
55211;DHT22;41082;52.822;6.666;2022-11-20T03:48:29;0.70;99.90
55211;DHT22;41082;52.822;6.666;2022-11-20T03:51:12;0.70;99.90
55211;DHT22;41082;52.822;6.666;2022-11-20T03:53:40;0.70;99.90
55211;DHT22;41082;52.822;6.666;2022-11-20T03:56:07;0.70;99.90
55211;DHT22;41082;52.822;6.666;2022-11-20T03:58:34;0.70;99.90
55211;DHT22;41082;52.822;6.666;2022-11-20T04:01:22;0.70;99.90
55211;DHT22;41082;52.822;6.666;2022-11-20T04:03:48;0.70;99.90
55211;DHT22;41082;52.822;6.666;2022-11-20T04:06:37;0.70;99.90
55211;DHT22;41082;52.822;6.666;2022-11-20T04:09:01;0.80;99.90
55211;DHT22;41082;52.822;6.666;2022-11-20T04:11:30;0.80;99.90
55211;DHT22;41082;52.822;6.666;2022-11-20T04:13:57;0.80;99.90
55211;DHT22;41082;52.822;6.666;2022-11-20T04:16:25;0.80;99.90
55211;DHT22;41082;52.822;6.666;2022-11-20T04:18:57;0.80;99.90
55211;DHT22;41082;52.822;6.666;2022-11-20T04:21:24;0.80;99.90
55211;DHT22;41082;52.822;6.666;2022-11-20T04:23:51;0.80;99.90
55211;DHT22;41082;52.822;6.666;2022-11-20T04:26:18;0.80;99.90
55211;DHT22;41082;52.822;6.666;2022-11-20T04:28:44;0.80;99.90
55211;DHT22;41082;52.822;6.666;2022-11-20T04:31:18;0.90;99.90
55211;DHT22;41082;52.822;6.666;2022-11-20T04:33:44;0.80;99.90
55211;DHT22;41082;52.822;6.666;2022-11-20T04:36:12;0.90;99.90
55211;DHT22;41082;52.822;6.666;2022-11-20T04:38:38;0.90;99.90
55211;DHT22;41082;52.822;6.666;2022-11-20T04:41:06;0.90;99.90
55211;DHT22;41082;52.822;6.666;2022-11-20T04:43:32;0.90;99.90
55211;DHT22;41082;52.822;6.666;2022-11-20T04:45:59;0.90;99.90
55211;DHT22;41082;52.822;6.666;2022-11-20T04:48:26;0.90;99.90
55211;DHT22;41082;52.822;6.666;2022-11-20T04:50:52;0.90;99.90
55211;DHT22;41082;52.822;6.666;2022-11-20T04:53:18;0.90;99.90
55211;DHT22;41082;52.822;6.666;2022-11-20T04:55:44;0.90;99.90
55211;DHT22;41082;52.822;6.666;2022-11-20T04:58:11;0.90;99.90
55211;DHT22;41082;52.822;6.666;2022-11-20T05:00:37;0.90;99.90
55211;DHT22;41082;52.822;6.666;2022-11-20T05:03:02;0.90;99.90
55211;DHT22;41082;52.822;6.666;2022-11-20T05:05:28;0.90;99.90
55211;DHT22;41082;52.822;6.666;2022-11-20T05:07:56;0.90;99.90
55211;DHT22;41082;52.822;6.666;2022-11-20T05:10:22;1.00;99.90
55211;DHT22;41082;52.822;6.666;2022-11-20T05:12:48;0.90;99.90
55211;DHT22;41082;52.822;6.666;2022-11-20T05:15:13;0.90;99.90
55211;DHT22;41082;52.822;6.666;2022-11-20T05:17:39;1.00;99.90
55211;DHT22;41082;52.822;6.666;2022-11-20T05:20:05;1.00;99.90
55211;DHT22;41082;52.822;6.666;2022-11-20T05:22:31;1.00;99.90
55211;DHT22;41082;52.822;6.666;2022-11-20T05:24:56;1.00;99.90
55211;DHT22;41082;52.822;6.666;2022-11-20T05:27:22;1.00;99.90
55211;DHT22;41082;52.822;6.666;2022-11-20T05:29:47;1.00;99.90
55211;DHT22;41082;52.822;6.666;2022-11-20T05:32:13;1.00;99.90
55211;DHT22;41082;52.822;6.666;2022-11-20T05:34:38;1.00;99.90
55211;DHT22;41082;52.822;6.666;2022-11-20T05:37:04;1.00;99.90
55211;DHT22;41082;52.822;6.666;2022-11-20T05:39:29;1.00;99.90
55211;DHT22;41082;52.822;6.666;2022-11-20T05:41:56;1.00;99.90
55211;DHT22;41082;52.822;6.666;2022-11-20T05:44:40;1.00;99.90
55211;DHT22;41082;52.822;6.666;2022-11-20T05:47:06;1.10;99.90
55211;DHT22;41082;52.822;6.666;2022-11-20T05:49:31;1.10;99.90
55211;DHT22;41082;52.822;6.666;2022-11-20T05:51:57;1.10;99.90
55211;DHT22;41082;52.822;6.666;2022-11-20T05:54:23;1.00;99.90
55211;DHT22;41082;52.822;6.666;2022-11-20T05:56:48;1.00;99.90
55211;DHT22;41082;52.822;6.666;2022-11-20T05:59:14;1.00;99.90
55211;DHT22;41082;52.822;6.666;2022-11-20T06:01:39;1.00;99.90
55211;DHT22;41082;52.822;6.666;2022-11-20T06:04:05;1.00;99.90
55211;DHT22;41082;52.822;6.666;2022-11-20T06:06:30;1.00;99.90
55211;DHT22;41082;52.822;6.666;2022-11-20T06:08:56;1.00;99.90
55211;DHT22;41082;52.822;6.666;2022-11-20T06:11:24;1.00;99.90
55211;DHT22;41082;52.822;6.666;2022-11-20T06:13:50;1.00;99.90
55211;DHT22;41082;52.822;6.666;2022-11-20T06:16:17;1.00;99.90
55211;DHT22;41082;52.822;6.666;2022-11-20T06:18:44;1.00;99.90
55211;DHT22;41082;52.822;6.666;2022-11-20T06:21:16;1.00;99.90
55211;DHT22;41082;52.822;6.666;2022-11-20T06:23:42;1.00;99.90
55211;DHT22;41082;52.822;6.666;2022-11-20T06:26:11;1.00;99.90
55211;DHT22;41082;52.822;6.666;2022-11-20T06:28:37;1.00;99.90
55211;DHT22;41082;52.822;6.666;2022-11-20T06:31:03;1.10;99.90
55211;DHT22;41082;52.822;6.666;2022-11-20T06:33:29;1.00;99.90
55211;DHT22;41082;52.822;6.666;2022-11-20T06:35:59;1.10;99.90
55211;DHT22;41082;52.822;6.666;2022-11-20T06:38:26;1.10;99.90
55211;DHT22;41082;52.822;6.666;2022-11-20T06:40:52;1.10;99.90
55211;DHT22;41082;52.822;6.666;2022-11-20T06:43:18;1.10;99.90
55211;DHT22;41082;52.822;6.666;2022-11-20T06:45:43;1.10;99.90
55211;DHT22;41082;52.822;6.666;2022-11-20T06:48:09;1.10;99.90
55211;DHT22;41082;52.822;6.666;2022-11-20T06:50:36;1.10;99.90
55211;DHT22;41082;52.822;6.666;2022-11-20T06:53:03;1.10;99.90
55211;DHT22;41082;52.822;6.666;2022-11-20T06:55:29;1.10;99.90
55211;DHT22;41082;52.822;6.666;2022-11-20T06:57:55;1.10;99.90
55211;DHT22;41082;52.822;6.666;2022-11-20T07:00:21;1.10;99.90
55211;DHT22;41082;52.822;6.666;2022-11-20T07:02:46;1.10;99.90
55211;DHT22;41082;52.822;6.666;2022-11-20T07:05:12;1.00;99.90
55211;DHT22;41082;52.822;6.666;2022-11-20T07:07:38;1.00;99.90
55211;DHT22;41082;52.822;6.666;2022-11-20T07:10:04;1.10;99.90
55211;DHT22;41082;52.822;6.666;2022-11-20T07:12:30;1.10;99.90
55211;DHT22;41082;52.822;6.666;2022-11-20T07:14:55;1.10;99.90
55211;DHT22;41082;52.822;6.666;2022-11-20T07:17:22;1.10;99.90
55211;DHT22;41082;52.822;6.666;2022-11-20T07:19:47;1.10;99.90
55211;DHT22;41082;52.822;6.666;2022-11-20T07:22:13;1.10;99.90
55211;DHT22;41082;52.822;6.666;2022-11-20T07:24:39;1.10;99.90
55211;DHT22;41082;52.822;6.666;2022-11-20T07:27:05;1.10;99.90
55211;DHT22;41082;52.822;6.666;2022-11-20T07:29:31;1.10;99.90
55211;DHT22;41082;52.822;6.666;2022-11-20T07:31:56;1.10;99.90
55211;DHT22;41082;52.822;6.666;2022-11-20T07:34:22;1.10;99.90
55211;DHT22;41082;52.822;6.666;2022-11-20T07:36:48;1.10;99.90
55211;DHT22;41082;52.822;6.666;2022-11-20T07:39:13;1.10;99.90
55211;DHT22;41082;52.822;6.666;2022-11-20T07:41:39;1.10;99.90
55211;DHT22;41082;52.822;6.666;2022-11-20T07:44:05;1.10;99.90
55211;DHT22;41082;52.822;6.666;2022-11-20T07:46:30;1.10;99.90
55211;DHT22;41082;52.822;6.666;2022-11-20T07:48:56;1.10;99.90
55211;DHT22;41082;52.822;6.666;2022-11-20T07:51:22;1.10;99.90
55211;DHT22;41082;52.822;6.666;2022-11-20T07:53:52;1.10;99.90
55211;DHT22;41082;52.822;6.666;2022-11-20T07:56:18;1.20;99.90
55211;DHT22;41082;52.822;6.666;2022-11-20T07:58:43;1.20;99.90
55211;DHT22;41082;52.822;6.666;2022-11-20T08:01:09;1.30;99.90
55211;DHT22;41082;52.822;6.666;2022-11-20T08:03:35;1.20;99.90
55211;DHT22;41082;52.822;6.666;2022-11-20T08:06:03;1.20;99.90
55211;DHT22;41082;52.822;6.666;2022-11-20T08:08:29;1.20;99.90
55211;DHT22;41082;52.822;6.666;2022-11-20T08:10:57;1.30;99.90
55211;DHT22;41082;52.822;6.666;2022-11-20T08:13:43;1.30;99.90
55211;DHT22;41082;52.822;6.666;2022-11-20T08:16:27;1.30;99.90
55211;DHT22;41082;52.822;6.666;2022-11-20T08:18:53;1.40;99.90
55211;DHT22;41082;52.822;6.666;2022-11-20T08:21:19;1.40;99.90
55211;DHT22;41082;52.822;6.666;2022-11-20T08:23:44;1.40;99.90
55211;DHT22;41082;52.822;6.666;2022-11-20T08:26:10;1.40;99.90
55211;DHT22;41082;52.822;6.666;2022-11-20T08:28:35;1.40;99.90
55211;DHT22;41082;52.822;6.666;2022-11-20T08:31:02;1.40;99.90
55211;DHT22;41082;52.822;6.666;2022-11-20T08:33:28;1.40;99.90
55211;DHT22;41082;52.822;6.666;2022-11-20T08:36:02;1.40;99.90
55211;DHT22;41082;52.822;6.666;2022-11-20T08:38:28;1.50;99.90
55211;DHT22;41082;52.822;6.666;2022-11-20T08:41:01;1.50;99.90
55211;DHT22;41082;52.822;6.666;2022-11-20T08:43:45;1.50;99.90
55211;DHT22;41082;52.822;6.666;2022-11-20T08:46:11;1.50;99.90
55211;DHT22;41082;52.822;6.666;2022-11-20T08:48:37;1.60;99.90
55211;DHT22;41082;52.822;6.666;2022-11-20T08:51:02;1.50;99.90
55211;DHT22;41082;52.822;6.666;2022-11-20T08:53:28;1.60;99.90
55211;DHT22;41082;52.822;6.666;2022-11-20T08:55:54;1.60;99.90
55211;DHT22;41082;52.822;6.666;2022-11-20T08:58:20;1.60;99.90
55211;DHT22;41082;52.822;6.666;2022-11-20T09:00:45;1.70;99.90
55211;DHT22;41082;52.822;6.666;2022-11-20T09:03:11;1.70;99.90
55211;DHT22;41082;52.822;6.666;2022-11-20T09:05:38;1.80;99.90
55211;DHT22;41082;52.822;6.666;2022-11-20T09:08:04;1.80;99.90
55211;DHT22;41082;52.822;6.666;2022-11-20T09:10:29;1.80;99.90
55211;DHT22;41082;52.822;6.666;2022-11-20T09:12:55;1.90;99.90
55211;DHT22;41082;52.822;6.666;2022-11-20T09:15:21;1.90;99.90
55211;DHT22;41082;52.822;6.666;2022-11-20T09:17:58;1.90;99.90
55211;DHT22;41082;52.822;6.666;2022-11-20T09:20:25;1.90;99.90
55211;DHT22;41082;52.822;6.666;2022-11-20T09:22:50;1.90;99.90
55211;DHT22;41082;52.822;6.666;2022-11-20T09:25:17;2.00;99.90
55211;DHT22;41082;52.822;6.666;2022-11-20T09:27:42;1.90;99.90
55211;DHT22;41082;52.822;6.666;2022-11-20T09:30:10;2.00;99.90
55211;DHT22;41082;52.822;6.666;2022-11-20T09:32:35;2.00;99.90
55211;DHT22;41082;52.822;6.666;2022-11-20T09:35:01;2.00;99.90
55211;DHT22;41082;52.822;6.666;2022-11-20T09:37:27;2.00;99.90
55211;DHT22;41082;52.822;6.666;2022-11-20T09:39:53;2.00;99.90
55211;DHT22;41082;52.822;6.666;2022-11-20T09:48:11;2.20;99.90
55211;DHT22;41082;52.822;6.666;2022-11-20T09:50:43;2.30;99.90
55211;DHT22;41082;52.822;6.666;2022-11-20T09:53:20;2.40;99.90
55211;DHT22;41082;52.822;6.666;2022-11-20T09:55:50;2.40;99.90
55211;DHT22;41082;52.822;6.666;2022-11-20T09:58:29;2.40;99.90
55211;DHT22;41082;52.822;6.666;2022-11-20T10:00:58;2.50;99.90
55211;DHT22;41082;52.822;6.666;2022-11-20T10:03:44;2.50;99.90
55211;DHT22;41082;52.822;6.666;2022-11-20T10:06:15;2.50;99.90
55211;DHT22;41082;52.822;6.666;2022-11-20T10:08:50;2.60;99.90
55211;DHT22;41082;52.822;6.666;2022-11-20T10:14:38;2.70;99.90
55211;DHT22;41082;52.822;6.666;2022-11-20T10:17:25;2.80;99.90
55211;DHT22;41082;52.822;6.666;2022-11-20T10:31:36;3.10;99.90
55211;DHT22;41082;52.822;6.666;2022-11-20T10:36:56;3.20;99.90
55211;DHT22;41082;52.822;6.666;2022-11-20T10:39:37;3.20;99.90
55211;DHT22;41082;52.822;6.666;2022-11-20T10:42:11;3.20;99.90
55211;DHT22;41082;52.822;6.666;2022-11-20T10:44:46;3.20;99.90
55211;DHT22;41082;52.822;6.666;2022-11-20T10:47:27;3.30;99.90
55211;DHT22;41082;52.822;6.666;2022-11-20T10:49:55;3.30;99.90
55211;DHT22;41082;52.822;6.666;2022-11-20T10:52:41;3.40;99.90
55211;DHT22;41082;52.822;6.666;2022-11-20T11:01:15;3.40;99.90
55211;DHT22;41082;52.822;6.666;2022-11-20T11:03:42;3.50;99.90
55211;DHT22;41082;52.822;6.666;2022-11-20T11:08:41;3.50;99.90
55211;DHT22;41082;52.822;6.666;2022-11-20T11:11:23;3.60;99.90
55211;DHT22;41082;52.822;6.666;2022-11-20T11:13:50;3.60;99.90
55211;DHT22;41082;52.822;6.666;2022-11-20T11:16:34;3.60;99.90
55211;DHT22;41082;52.822;6.666;2022-11-20T11:19:13;3.70;99.90
55211;DHT22;41082;52.822;6.666;2022-11-20T11:21:38;3.70;99.90
55211;DHT22;41082;52.822;6.666;2022-11-20T11:24:28;3.80;99.90
55211;DHT22;41082;52.822;6.666;2022-11-20T11:27:10;3.90;99.90
55211;DHT22;41082;52.822;6.666;2022-11-20T11:29:36;3.90;99.90
55211;DHT22;41082;52.822;6.666;2022-11-20T11:32:05;3.90;99.90
55211;DHT22;41082;52.822;6.666;2022-11-20T11:34:31;4.00;99.90
55211;DHT22;41082;52.822;6.666;2022-11-20T11:36:59;4.00;99.90
55211;DHT22;41082;52.822;6.666;2022-11-20T11:39:27;4.10;99.90
55211;DHT22;41082;52.822;6.666;2022-11-20T11:41:53;4.10;99.90
55211;DHT22;41082;52.822;6.666;2022-11-20T11:44:31;4.10;99.90
55211;DHT22;41082;52.822;6.666;2022-11-20T11:47:42;4.10;99.90
55211;DHT22;41082;52.822;6.666;2022-11-20T11:55:40;4.20;99.90
55211;DHT22;41082;52.822;6.666;2022-11-20T11:58:11;4.30;99.90
55211;DHT22;41082;52.822;6.666;2022-11-20T12:00:44;4.40;99.90
55211;DHT22;41082;52.822;6.666;2022-11-20T12:03:32;4.50;99.90
55211;DHT22;41082;52.822;6.666;2022-11-20T12:06:11;4.60;99.90
55211;DHT22;41082;52.822;6.666;2022-11-20T12:08:43;4.60;99.90
55211;DHT22;41082;52.822;6.666;2022-11-20T12:13:58;4.70;99.90
55211;DHT22;41082;52.822;6.666;2022-11-20T12:16:27;4.60;99.90
55211;DHT22;41082;52.822;6.666;2022-11-20T12:18:55;4.70;99.90
55211;DHT22;41082;52.822;6.666;2022-11-20T12:30:11;4.40;99.90
55211;DHT22;41082;52.822;6.666;2022-11-20T12:45:03;4.10;99.90
55211;DHT22;41082;52.822;6.666;2022-11-20T12:56:28;4.20;99.90
55211;DHT22;41082;52.822;6.666;2022-11-20T13:01:58;4.10;99.90
55211;DHT22;41082;52.822;6.666;2022-11-20T13:07:03;4.20;99.90
55211;DHT22;41082;52.822;6.666;2022-11-20T13:09:30;4.10;99.90
55211;DHT22;41082;52.822;6.666;2022-11-20T13:17:33;4.00;99.90
55211;DHT22;41082;52.822;6.666;2022-11-20T13:20:02;4.00;99.90
55211;DHT22;41082;52.822;6.666;2022-11-20T13:22:48;4.00;99.90
55211;DHT22;41082;52.822;6.666;2022-11-20T13:25:31;3.90;99.90
55211;DHT22;41082;52.822;6.666;2022-11-20T13:28:01;3.90;99.90
55211;DHT22;41082;52.822;6.666;2022-11-20T13:30:29;4.00;99.90
55211;DHT22;41082;52.822;6.666;2022-11-20T13:33:03;3.90;99.90
55211;DHT22;41082;52.822;6.666;2022-11-20T13:35:35;4.00;99.90
55211;DHT22;41082;52.822;6.666;2022-11-20T13:38:04;4.00;99.90
55211;DHT22;41082;52.822;6.666;2022-11-20T13:40:30;4.00;99.90
55211;DHT22;41082;52.822;6.666;2022-11-20T13:43:07;4.00;99.90
55211;DHT22;41082;52.822;6.666;2022-11-20T13:45:35;4.00;99.90
55211;DHT22;41082;52.822;6.666;2022-11-20T13:48:22;4.00;99.90
55211;DHT22;41082;52.822;6.666;2022-11-20T13:56:24;3.90;99.90
55211;DHT22;41082;52.822;6.666;2022-11-20T13:59:05;4.00;99.90
55211;DHT22;41082;52.822;6.666;2022-11-20T14:01:34;3.90;99.90
55211;DHT22;41082;52.822;6.666;2022-11-20T14:04:07;3.90;99.90
55211;DHT22;41082;52.822;6.666;2022-11-20T14:06:45;4.00;99.90
55211;DHT22;41082;52.822;6.666;2022-11-20T14:09:24;4.00;99.90
55211;DHT22;41082;52.822;6.666;2022-11-20T14:11:49;4.00;99.90
55211;DHT22;41082;52.822;6.666;2022-11-20T14:14:18;3.90;99.90
55211;DHT22;41082;52.822;6.666;2022-11-20T14:16:45;3.90;99.90
55211;DHT22;41082;52.822;6.666;2022-11-20T14:21:52;3.90;99.90
55211;DHT22;41082;52.822;6.666;2022-11-20T14:24:23;3.90;99.90
55211;DHT22;41082;52.822;6.666;2022-11-20T14:26:50;3.90;99.90
55211;DHT22;41082;52.822;6.666;2022-11-20T14:29:27;3.90;99.90
55211;DHT22;41082;52.822;6.666;2022-11-20T14:31:54;3.80;99.90
55211;DHT22;41082;52.822;6.666;2022-11-20T14:34:24;3.80;99.90
55211;DHT22;41082;52.822;6.666;2022-11-20T14:36:56;3.80;99.90
55211;DHT22;41082;52.822;6.666;2022-11-20T14:39:27;3.80;99.90
55211;DHT22;41082;52.822;6.666;2022-11-20T14:41:54;3.80;99.90
55211;DHT22;41082;52.822;6.666;2022-11-20T14:44:31;3.70;99.90
55211;DHT22;41082;52.822;6.666;2022-11-20T14:46:59;3.70;99.90
55211;DHT22;41082;52.822;6.666;2022-11-20T14:49:25;3.70;99.90
55211;DHT22;41082;52.822;6.666;2022-11-20T14:52:14;3.70;99.90
55211;DHT22;41082;52.822;6.666;2022-11-20T14:54:48;3.60;99.90
55211;DHT22;41082;52.822;6.666;2022-11-20T14:57:25;3.60;99.90
55211;DHT22;41082;52.822;6.666;2022-11-20T15:00:03;3.60;99.90
55211;DHT22;41082;52.822;6.666;2022-11-20T15:02:30;3.50;99.90
55211;DHT22;41082;52.822;6.666;2022-11-20T15:05:01;3.50;99.90
55211;DHT22;41082;52.822;6.666;2022-11-20T15:07:34;3.50;99.90
55211;DHT22;41082;52.822;6.666;2022-11-20T15:10:04;3.40;99.90
55211;DHT22;41082;52.822;6.666;2022-11-20T15:12:51;3.40;99.90
55211;DHT22;41082;52.822;6.666;2022-11-20T15:18:46;3.30;99.90
55211;DHT22;41082;52.822;6.666;2022-11-20T15:21:11;3.30;99.90
55211;DHT22;41082;52.822;6.666;2022-11-20T15:23:37;3.30;99.90
55211;DHT22;41082;52.822;6.666;2022-11-20T15:26:07;3.30;99.90
55211;DHT22;41082;52.822;6.666;2022-11-20T15:28:40;3.30;99.90
55211;DHT22;41082;52.822;6.666;2022-11-20T15:31:09;3.20;99.90
55211;DHT22;41082;52.822;6.666;2022-11-20T15:33:35;3.20;99.90
55211;DHT22;41082;52.822;6.666;2022-11-20T15:36:01;3.20;99.90
55211;DHT22;41082;52.822;6.666;2022-11-20T15:38:27;3.20;99.90
55211;DHT22;41082;52.822;6.666;2022-11-20T15:40:52;3.20;99.90
55211;DHT22;41082;52.822;6.666;2022-11-20T15:43:18;3.20;99.90
55211;DHT22;41082;52.822;6.666;2022-11-20T15:45:59;3.20;99.90
55211;DHT22;41082;52.822;6.666;2022-11-20T15:48:28;3.10;99.90
55211;DHT22;41082;52.822;6.666;2022-11-20T15:51:07;3.10;99.90
55211;DHT22;41082;52.822;6.666;2022-11-20T15:53:41;3.10;99.90
55211;DHT22;41082;52.822;6.666;2022-11-20T15:56:11;3.10;99.90
55211;DHT22;41082;52.822;6.666;2022-11-20T15:58:38;3.10;99.90
55211;DHT22;41082;52.822;6.666;2022-11-20T16:01:03;3.00;99.90
55211;DHT22;41082;52.822;6.666;2022-11-20T16:03:29;3.10;99.90
55211;DHT22;41082;52.822;6.666;2022-11-20T16:05:55;3.00;99.90
55211;DHT22;41082;52.822;6.666;2022-11-20T16:08:21;3.00;99.90
55211;DHT22;41082;52.822;6.666;2022-11-20T16:10:46;3.00;99.90
55211;DHT22;41082;52.822;6.666;2022-11-20T16:13:14;3.00;99.90
55211;DHT22;41082;52.822;6.666;2022-11-20T16:16:00;3.00;99.90
55211;DHT22;41082;52.822;6.666;2022-11-20T16:18:26;3.00;99.90
55211;DHT22;41082;52.822;6.666;2022-11-20T16:20:53;3.00;99.90
55211;DHT22;41082;52.822;6.666;2022-11-20T16:23:19;3.00;99.90
55211;DHT22;41082;52.822;6.666;2022-11-20T16:25:46;3.00;99.90
55211;DHT22;41082;52.822;6.666;2022-11-20T16:28:12;3.00;99.90
55211;DHT22;41082;52.822;6.666;2022-11-20T16:30:38;3.00;99.90
55211;DHT22;41082;52.822;6.666;2022-11-20T16:33:09;3.00;99.90
55211;DHT22;41082;52.822;6.666;2022-11-20T16:35:35;3.00;99.90
55211;DHT22;41082;52.822;6.666;2022-11-20T16:38:00;3.00;99.90
55211;DHT22;41082;52.822;6.666;2022-11-20T16:40:26;3.00;99.90
55211;DHT22;41082;52.822;6.666;2022-11-20T16:42:52;3.00;99.90
55211;DHT22;41082;52.822;6.666;2022-11-20T16:45:17;3.00;99.90
55211;DHT22;41082;52.822;6.666;2022-11-20T16:47:43;2.90;99.90
55211;DHT22;41082;52.822;6.666;2022-11-20T16:50:09;2.90;99.90
55211;DHT22;41082;52.822;6.666;2022-11-20T16:52:34;2.90;99.90
55211;DHT22;41082;52.822;6.666;2022-11-20T16:55:00;2.90;99.90
55211;DHT22;41082;52.822;6.666;2022-11-20T16:57:30;2.90;99.90
55211;DHT22;41082;52.822;6.666;2022-11-20T16:59:58;2.90;99.90
55211;DHT22;41082;52.822;6.666;2022-11-20T17:02:23;2.90;99.90
55211;DHT22;41082;52.822;6.666;2022-11-20T17:04:50;2.90;99.90
55211;DHT22;41082;52.822;6.666;2022-11-20T17:07:16;2.90;99.90
55211;DHT22;41082;52.822;6.666;2022-11-20T17:09:42;2.90;99.90
55211;DHT22;41082;52.822;6.666;2022-11-20T17:12:07;2.90;99.90
55211;DHT22;41082;52.822;6.666;2022-11-20T17:14:33;2.90;99.90
55211;DHT22;41082;52.822;6.666;2022-11-20T17:16:59;2.90;99.90
55211;DHT22;41082;52.822;6.666;2022-11-20T17:19:24;3.00;99.90
55211;DHT22;41082;52.822;6.666;2022-11-20T17:21:50;2.90;99.90
55211;DHT22;41082;52.822;6.666;2022-11-20T17:24:15;2.90;99.90
55211;DHT22;41082;52.822;6.666;2022-11-20T17:26:43;2.90;99.90
55211;DHT22;41082;52.822;6.666;2022-11-20T17:29:16;2.90;99.90
55211;DHT22;41082;52.822;6.666;2022-11-20T17:31:43;2.90;99.90
55211;DHT22;41082;52.822;6.666;2022-11-20T17:34:12;2.90;99.90